Time;durP1;ratioP1;P1;durP2;ratioP2;P2;SDS_P1;SDS_P2;PMS_P1;PMS_P2;Temp;Humidity;BMP_temperature;BMP_pressure;BME280_temperature;BME280_humidity;BME280_pressure;Samples;Min_cycle;Max_cycle;Signal;HPM_P1;HPM_P2
2023/12/04 00:01:01;;;;;;;100.20;45.30;;;;;;;-128.00;-1.00;-1.00;103030;1253;1004733;-78
2023/12/04 00:03:43;;;;;;;90.00;36.40;;;;;;;-128.00;-1.00;-1.00;102989;1253;1059986;-78
2023/12/04 00:06:10;;;;;;;76.60;36.20;;;;;;;-128.00;-1.00;-1.00;102969;1253;1006081;-78
2023/12/04 00:08:37;;;;;;;87.10;36.40;;;;;;;-128.00;-1.00;-1.00;103114;1253;1004588;-79
2023/12/04 00:11:05;;;;;;;78.20;33.90;;;;;;;-128.00;-1.00;-1.00;103161;1253;1004798;-79
2023/12/04 00:13:31;;;;;;;90.80;40.90;;;;;;;-128.00;-1.00;-1.00;103151;1253;1004389;-79
2023/12/04 00:15:58;;;;;;;108.80;44.00;;;;;;;-128.00;-1.00;-1.00;103025;1253;1004738;-78
2023/12/04 00:18:25;;;;;;;72.70;30.40;;;;;;;-128.00;-1.00;-1.00;103025;1253;1004933;-79
2023/12/04 00:20:52;;;;;;;97.90;39.20;;;;;;;-128.00;-1.00;-1.00;103056;1258;1004380;-78
2023/12/04 00:23:18;;;;;;;77.80;32.40;;;;;;;-128.00;-1.00;-1.00;102979;1253;1007695;-78
2023/12/04 00:25:45;;;;;;;65.30;31.30;;;;;;;-128.00;-1.00;-1.00;103105;1253;1005447;-79
2023/12/04 00:28:11;;;;;;;98.70;38.20;;;;;;;-128.00;-1.00;-1.00;103033;1257;1004443;-79
2023/12/04 00:30:38;;;;;;;79.70;33.20;;;;;;;-128.00;-1.00;-1.00;103042;1253;1003912;-78
2023/12/04 00:33:04;;;;;;;95.90;39.40;;;;;;;-128.00;-1.00;-1.00;103115;1253;1005315;-78
2023/12/04 00:35:31;;;;;;;101.60;49.20;;;;;;;-128.00;-1.00;-1.00;103055;1253;1006036;-78
2023/12/04 00:37:58;;;;;;;84.50;41.30;;;;;;;-128.00;-1.00;-1.00;102927;1253;1005065;-78
2023/12/04 00:40:24;;;;;;;95.50;40.00;;;;;;;-128.00;-1.00;-1.00;103063;1253;1003903;-79
2023/12/04 00:42:51;;;;;;;87.30;35.30;;;;;;;-128.00;-1.00;-1.00;103056;1253;1005058;-79
2023/12/04 00:45:18;;;;;;;76.20;34.70;;;;;;;-128.00;-1.00;-1.00;103131;1253;1005025;-78
2023/12/04 00:47:44;;;;;;;83.20;40.40;;;;;;;-128.00;-1.00;-1.00;103000;1253;1004287;-78
2023/12/04 00:50:11;;;;;;;86.00;36.20;;;;;;;-128.00;-1.00;-1.00;103131;1253;1004768;-78
2023/12/04 00:52:38;;;;;;;74.10;32.00;;;;;;;-128.00;-1.00;-1.00;103075;1253;1004071;-78
2023/12/04 00:55:05;;;;;;;84.60;30.70;;;;;;;-128.00;-1.00;-1.00;103028;1253;1004489;-79
2023/12/04 00:57:32;;;;;;;74.00;32.80;;;;;;;-128.00;-1.00;-1.00;104632;1253;1004882;-79
2023/12/04 00:59:58;;;;;;;80.20;30.80;;;;;;;-128.00;-1.00;-1.00;103546;1253;1003431;-79
2023/12/04 01:02:25;;;;;;;76.50;35.70;;;;;;;-128.00;-1.00;-1.00;104388;1256;1003812;-80
2023/12/04 01:04:52;;;;;;;81.00;31.70;;;;;;;-128.00;-1.00;-1.00;105389;1253;1004251;-79
2023/12/04 01:07:18;;;;;;;75.90;31.90;;;;;;;-128.00;-1.00;-1.00;105389;1259;1003638;-78
2023/12/04 01:09:45;;;;;;;80.30;34.30;;;;;;;-128.00;-1.00;-1.00;105653;1253;1004149;-78
2023/12/04 01:12:12;;;;;;;62.40;29.90;;;;;;;-128.00;-1.00;-1.00;105425;1253;1004147;-78
2023/12/04 01:14:38;;;;;;;58.20;29.20;;;;;;;-128.00;-1.00;-1.00;105594;1253;1004966;-79
2023/12/04 01:17:06;;;;;;;66.50;27.10;;;;;;;-128.00;-1.00;-1.00;105401;1253;1004393;-78
2023/12/04 01:19:32;;;;;;;57.80;27.40;;;;;;;-128.00;-1.00;-1.00;105386;1253;1004380;-78
2023/12/04 01:21:59;;;;;;;63.90;27.70;;;;;;;-128.00;-1.00;-1.00;105618;1253;1004669;-79
2023/12/04 01:24:26;;;;;;;71.20;28.80;;;;;;;-128.00;-1.00;-1.00;105406;1253;1004544;-79
2023/12/04 01:26:54;;;;;;;65.80;28.20;;;;;;;-128.00;-1.00;-1.00;105620;1253;1004944;-78
2023/12/04 01:29:20;;;;;;;50.10;22.70;;;;;;;-128.00;-1.00;-1.00;105398;1253;1003261;-79
2023/12/04 01:31:47;;;;;;;55.20;23.90;;;;;;;-128.00;-1.00;-1.00;105615;1253;1004118;-78
2023/12/04 01:34:13;;;;;;;46.40;24.50;;;;;;;-128.00;-1.00;-1.00;103952;1253;1004153;-79
2023/12/04 01:36:41;;;;;;;49.80;23.20;;;;;;;-128.00;-1.00;-1.00;103060;1253;1004797;-79
2023/12/04 01:39:07;;;;;;;39.90;20.40;;;;;;;-128.00;-1.00;-1.00;103633;1253;1004756;-78
2023/12/04 01:41:34;;;;;;;68.40;28.50;;;;;;;-128.00;-1.00;-1.00;102965;1253;1004721;-79
2023/12/04 01:44:01;;;;;;;63.30;27.70;;;;;;;-128.00;-1.00;-1.00;102922;1253;1005073;-78
2023/12/04 01:46:27;;;;;;;59.90;25.70;;;;;;;-128.00;-1.00;-1.00;102864;1253;1004519;-78
2023/12/04 01:48:54;;;;;;;63.50;26.30;;;;;;;-128.00;-1.00;-1.00;103129;1253;1004109;-78
2023/12/04 01:51:20;;;;;;;61.00;27.80;;;;;;;-128.00;-1.00;-1.00;102919;1253;1004358;-79
2023/12/04 01:53:47;;;;;;;65.40;28.80;;;;;;;-128.00;-1.00;-1.00;102964;1253;1004039;-78
2023/12/04 01:56:14;;;;;;;92.20;34.00;;;;;;;-128.00;-1.00;-1.00;103044;1253;1004462;-78
2023/12/04 01:58:41;;;;;;;93.90;34.40;;;;;;;-128.00;-1.00;-1.00;103110;1253;1004201;-78
2023/12/04 02:01:07;;;;;;;89.70;33.10;;;;;;;-128.00;-1.00;-1.00;103048;1253;1005377;-78
2023/12/04 02:03:34;;;;;;;97.70;33.60;;;;;;;-128.00;-1.00;-1.00;103041;1257;1004905;-78
2023/12/04 02:06:02;;;;;;;87.00;33.60;;;;;;;-128.00;-1.00;-1.00;102862;1253;1004243;-78
2023/12/04 02:08:30;;;;;;;122.70;38.80;;;;;;;-128.00;-1.00;-1.00;105354;1253;1003804;-78
2023/12/04 02:10:56;;;;;;;121.20;44.50;;;;;;;-128.00;-1.00;-1.00;105385;1253;1004211;-78
2023/12/04 02:13:23;;;;;;;122.10;45.50;;;;;;;-128.00;-1.00;-1.00;104842;1253;1003681;-78
2023/12/04 02:15:52;;;;;;;135.80;49.00;;;;;;;-128.00;-1.00;-1.00;102964;1253;1004606;-79
2023/12/04 02:18:19;;;;;;;142.10;53.20;;;;;;;-128.00;-1.00;-1.00;105325;1253;1058881;-79
2023/12/04 02:20:46;;;;;;;101.20;37.80;;;;;;;-128.00;-1.00;-1.00;104777;1254;1003852;-79
2023/12/04 02:23:12;;;;;;;80.40;33.80;;;;;;;-128.00;-1.00;-1.00;103119;1253;1005407;-78
2023/12/04 02:25:39;;;;;;;70.40;30.80;;;;;;;-128.00;-1.00;-1.00;103024;1253;1003854;-78
2023/12/04 02:28:06;;;;;;;73.70;32.40;;;;;;;-128.00;-1.00;-1.00;103088;1253;1004855;-80
2023/12/04 02:30:35;;;;;;;68.60;30.90;;;;;;;-128.00;-1.00;-1.00;103019;1253;1005000;-79
2023/12/04 02:33:04;;;;;;;82.50;35.50;;;;;;;-128.00;-1.00;-1.00;105628;1253;1045888;-79
2023/12/04 02:35:32;;;;;;;105.70;39.90;;;;;;;-128.00;-1.00;-1.00;104664;1254;1045930;-79
2023/12/04 02:38:00;;;;;;;90.20;40.80;;;;;;;-128.00;-1.00;-1.00;103035;1253;1004107;-78
2023/12/04 02:40:27;;;;;;;108.90;40.10;;;;;;;-128.00;-1.00;-1.00;103014;1260;1004994;-78
2023/12/04 02:42:53;;;;;;;83.50;33.20;;;;;;;-128.00;-1.00;-1.00;103043;1253;1005142;-78
2023/12/04 02:45:20;;;;;;;70.00;27.30;;;;;;;-128.00;-1.00;-1.00;105422;1253;1003894;-78
2023/12/04 02:47:46;;;;;;;56.50;25.00;;;;;;;-128.00;-1.00;-1.00;105386;1253;1004037;-79
2023/12/04 02:50:13;;;;;;;39.30;21.20;;;;;;;-128.00;-1.00;-1.00;103033;1253;1004443;-78
2023/12/04 02:52:40;;;;;;;53.60;24.90;;;;;;;-128.00;-1.00;-1.00;103116;1253;1004909;-79
2023/12/04 02:55:07;;;;;;;47.90;25.00;;;;;;;-128.00;-1.00;-1.00;102966;1253;1003956;-79
2023/12/04 02:57:33;;;;;;;53.10;23.50;;;;;;;-128.00;-1.00;-1.00;105581;1253;1004210;-78
2023/12/04 03:00:00;;;;;;;48.50;21.60;;;;;;;-128.00;-1.00;-1.00;104896;1253;1003481;-79
2023/12/04 03:02:27;;;;;;;49.00;21.70;;;;;;;-128.00;-1.00;-1.00;102995;1253;1004272;-79
2023/12/04 03:04:53;;;;;;;49.20;24.00;;;;;;;-128.00;-1.00;-1.00;103031;1253;1004976;-78
2023/12/04 03:07:21;;;;;;;63.30;29.30;;;;;;;-128.00;-1.00;-1.00;103038;1253;1005074;-78
2023/12/04 03:09:47;;;;;;;65.10;29.80;;;;;;;-128.00;-1.00;-1.00;103079;1254;1004208;-78
2023/12/04 03:12:14;;;;;;;51.70;25.20;;;;;;;-128.00;-1.00;-1.00;103050;1253;1004040;-78
2023/12/04 03:14:41;;;;;;;59.50;27.60;;;;;;;-128.00;-1.00;-1.00;103195;1259;1003899;-78
2023/12/04 03:17:07;;;;;;;60.60;29.30;;;;;;;-128.00;-1.00;-1.00;103060;1253;1004199;-78
2023/12/04 03:19:34;;;;;;;63.00;26.20;;;;;;;-128.00;-1.00;-1.00;104902;1253;1004489;-78
2023/12/04 03:22:01;;;;;;;61.80;27.70;;;;;;;-128.00;-1.00;-1.00;105593;1253;1004257;-79
2023/12/04 03:24:27;;;;;;;57.50;28.40;;;;;;;-128.00;-1.00;-1.00;103374;1253;1005168;-78
2023/12/04 03:26:54;;;;;;;67.60;32.30;;;;;;;-128.00;-1.00;-1.00;103090;1253;1005810;-78
2023/12/04 03:29:21;;;;;;;66.00;30.10;;;;;;;-128.00;-1.00;-1.00;104592;1253;1005247;-80
2023/12/04 03:31:48;;;;;;;67.70;30.30;;;;;;;-128.00;-1.00;-1.00;103561;1253;1006191;-78
2023/12/04 03:34:15;;;;;;;42.90;27.10;;;;;;;-128.00;-1.00;-1.00;103078;1253;1004421;-78
2023/12/04 03:36:41;;;;;;;58.00;29.60;;;;;;;-128.00;-1.00;-1.00;103076;1253;1004859;-78
2023/12/04 03:39:08;;;;;;;71.10;27.60;;;;;;;-128.00;-1.00;-1.00;103044;1253;1004689;-78
2023/12/04 03:41:34;;;;;;;68.10;28.80;;;;;;;-128.00;-1.00;-1.00;103118;1253;1004308;-78
2023/12/04 03:44:01;;;;;;;64.70;30.70;;;;;;;-128.00;-1.00;-1.00;103051;1253;1004542;-78
2023/12/04 03:46:28;;;;;;;71.80;33.00;;;;;;;-128.00;-1.00;-1.00;103070;1253;1004330;-78
2023/12/04 03:48:55;;;;;;;57.30;26.70;;;;;;;-128.00;-1.00;-1.00;103120;1253;1004318;-78
2023/12/04 03:51:21;;;;;;;64.00;23.50;;;;;;;-128.00;-1.00;-1.00;105654;1253;1003935;-79
2023/12/04 03:53:48;;;;;;;63.20;26.30;;;;;;;-128.00;-1.00;-1.00;105645;1253;1005117;-79
2023/12/04 03:56:14;;;;;;;62.20;27.50;;;;;;;-128.00;-1.00;-1.00;105616;1253;1004877;-78
2023/12/04 03:58:41;;;;;;;78.20;39.00;;;;;;;-128.00;-1.00;-1.00;103399;1253;1004374;-78
2023/12/04 04:01:07;;;;;;;67.80;35.70;;;;;;;-128.00;-1.00;-1.00;103534;1253;1004931;-78
2023/12/04 04:03:34;;;;;;;43.60;23.70;;;;;;;-128.00;-1.00;-1.00;105364;1254;1003754;-78
2023/12/04 04:06:00;;;;;;;48.30;26.80;;;;;;;-128.00;-1.00;-1.00;103042;1253;1006459;-78
2023/12/04 04:08:27;;;;;;;260.30;89.70;;;;;;;-128.00;-1.00;-1.00;103077;1254;1004332;-78
2023/12/04 04:10:54;;;;;;;135.90;50.90;;;;;;;-128.00;-1.00;-1.00;103042;1254;1004946;-78
2023/12/04 04:13:20;;;;;;;111.80;47.70;;;;;;;-128.00;-1.00;-1.00;103078;1253;1004034;-79
2023/12/04 04:15:47;;;;;;;63.30;29.70;;;;;;;-128.00;-1.00;-1.00;103064;1257;1004135;-78
2023/12/04 04:18:13;;;;;;;52.50;26.90;;;;;;;-128.00;-1.00;-1.00;103017;1253;1007773;-78
2023/12/04 04:20:40;;;;;;;57.90;25.50;;;;;;;-128.00;-1.00;-1.00;104844;1257;1004264;-78
2023/12/04 04:23:07;;;;;;;69.60;31.60;;;;;;;-128.00;-1.00;-1.00;103108;1253;1003995;-79
2023/12/04 04:25:34;;;;;;;57.00;30.30;;;;;;;-128.00;-1.00;-1.00;102992;1253;1004557;-78
2023/12/04 04:28:00;;;;;;;64.70;31.10;;;;;;;-128.00;-1.00;-1.00;102942;1259;1006462;-78
2023/12/04 04:30:27;;;;;;;66.00;33.20;;;;;;;-128.00;-1.00;-1.00;103114;1254;1003776;-78
2023/12/04 04:32:53;;;;;;;57.70;28.20;;;;;;;-128.00;-1.00;-1.00;103080;1257;1004476;-78
2023/12/04 04:35:20;;;;;;;64.00;31.90;;;;;;;-128.00;-1.00;-1.00;102960;1259;1003970;-79
2023/12/04 04:37:47;;;;;;;72.20;33.30;;;;;;;-128.00;-1.00;-1.00;102977;1259;1003964;-80
2023/12/04 04:40:14;;;;;;;90.60;38.90;;;;;;;-128.00;-1.00;-1.00;103030;1253;1004839;-78
2023/12/04 04:42:40;;;;;;;97.80;43.40;;;;;;;-128.00;-1.00;-1.00;103044;1253;1004892;-79
2023/12/04 04:45:08;;;;;;;103.50;40.30;;;;;;;-128.00;-1.00;-1.00;102962;1260;1004831;-78
2023/12/04 04:47:34;;;;;;;91.50;37.80;;;;;;;-128.00;-1.00;-1.00;102956;1260;1003743;-78
2023/12/04 04:50:01;;;;;;;88.60;38.60;;;;;;;-128.00;-1.00;-1.00;102929;1258;1004723;-78
2023/12/04 04:52:28;;;;;;;76.10;34.10;;;;;;;-128.00;-1.00;-1.00;103058;1253;1004263;-78
2023/12/04 04:54:54;;;;;;;71.70;34.10;;;;;;;-128.00;-1.00;-1.00;103064;1253;1004722;-78
2023/12/04 04:57:21;;;;;;;67.70;33.10;;;;;;;-128.00;-1.00;-1.00;102943;1253;1004516;-78
2023/12/04 04:59:47;;;;;;;67.90;31.90;;;;;;;-128.00;-1.00;-1.00;103110;1253;1004736;-78
2023/12/04 05:02:14;;;;;;;58.60;27.70;;;;;;;-128.00;-1.00;-1.00;103053;1253;1004232;-78
2023/12/04 05:04:41;;;;;;;63.20;34.00;;;;;;;-128.00;-1.00;-1.00;103100;1254;1004121;-79
2023/12/04 05:07:08;;;;;;;43.10;21.70;;;;;;;-128.00;-1.00;-1.00;102924;1255;1004359;-78
2023/12/04 05:09:34;;;;;;;57.50;29.50;;;;;;;-128.00;-1.00;-1.00;105364;1254;1004080;-79
2023/12/04 05:12:01;;;;;;;88.40;38.90;;;;;;;-128.00;-1.00;-1.00;105620;1253;1003934;-78
2023/12/04 05:14:27;;;;;;;95.00;42.90;;;;;;;-128.00;-1.00;-1.00;105658;1253;1004647;-78
2023/12/04 05:16:54;;;;;;;61.10;28.90;;;;;;;-128.00;-1.00;-1.00;105653;1257;1004241;-78
2023/12/04 05:19:21;;;;;;;136.60;42.70;;;;;;;-128.00;-1.00;-1.00;105643;1253;1004518;-78
2023/12/04 05:21:47;;;;;;;202.20;74.60;;;;;;;-128.00;-1.00;-1.00;105604;1253;1003815;-79
2023/12/04 05:24:14;;;;;;;163.30;63.30;;;;;;;-128.00;-1.00;-1.00;105522;1254;1004232;-78
2023/12/04 05:26:40;;;;;;;95.80;41.40;;;;;;;-128.00;-1.00;-1.00;103086;1257;1003953;-78
2023/12/04 05:29:07;;;;;;;71.50;30.40;;;;;;;-128.00;-1.00;-1.00;103032;1255;1004413;-78
2023/12/04 05:31:33;;;;;;;58.30;25.10;;;;;;;-128.00;-1.00;-1.00;103143;1254;1005073;-78
2023/12/04 05:34:00;;;;;;;69.70;32.80;;;;;;;-128.00;-1.00;-1.00;103025;1259;1003891;-79
2023/12/04 05:36:27;;;;;;;63.60;28.60;;;;;;;-128.00;-1.00;-1.00;103075;1258;1004611;-78
2023/12/04 05:38:53;;;;;;;53.90;25.60;;;;;;;-128.00;-1.00;-1.00;103069;1254;1004648;-78
2023/12/04 05:41:20;;;;;;;59.90;25.10;;;;;;;-128.00;-1.00;-1.00;103062;1253;1005267;-79
2023/12/04 05:43:47;;;;;;;55.00;24.40;;;;;;;-128.00;-1.00;-1.00;103079;1254;1004260;-78
2023/12/04 05:46:13;;;;;;;53.20;24.80;;;;;;;-128.00;-1.00;-1.00;103076;1259;1005048;-78
2023/12/04 05:48:40;;;;;;;44.40;22.00;;;;;;;-128.00;-1.00;-1.00;103170;1258;1005360;-78
2023/12/04 05:51:06;;;;;;;54.60;24.10;;;;;;;-128.00;-1.00;-1.00;103080;1254;1004543;-77
2023/12/04 05:53:33;;;;;;;54.90;24.90;;;;;;;-128.00;-1.00;-1.00;103086;1256;1004829;-78
2023/12/04 05:56:00;;;;;;;69.60;27.00;;;;;;;-128.00;-1.00;-1.00;103557;1254;1005064;-78
2023/12/04 05:58:26;;;;;;;59.70;27.50;;;;;;;-128.00;-1.00;-1.00;105612;1255;1005006;-78
2023/12/04 06:00:53;;;;;;;62.40;25.50;;;;;;;-128.00;-1.00;-1.00;105408;1254;1003979;-79
2023/12/04 06:03:19;;;;;;;62.10;29.10;;;;;;;-128.00;-1.00;-1.00;105632;1255;1003532;-78
2023/12/04 06:05:46;;;;;;;52.00;22.90;;;;;;;-128.00;-1.00;-1.00;105603;1253;1004382;-78
2023/12/04 06:08:13;;;;;;;56.20;25.50;;;;;;;-128.00;-1.00;-1.00;103562;1254;1005067;-78
2023/12/04 06:10:39;;;;;;;62.60;26.90;;;;;;;-128.00;-1.00;-1.00;103175;1259;1004027;-78
2023/12/04 06:13:06;;;;;;;56.30;25.40;;;;;;;-128.00;-1.00;-1.00;102955;1259;1005595;-78
2023/12/04 06:15:32;;;;;;;49.40;21.70;;;;;;;-128.00;-1.00;-1.00;103127;1255;1004269;-78
2023/12/04 06:17:59;;;;;;;46.80;23.70;;;;;;;-128.00;-1.00;-1.00;103136;1258;1004427;-78
2023/12/04 06:20:26;;;;;;;52.40;27.30;;;;;;;-128.00;-1.00;-1.00;103153;1254;1005375;-78
2023/12/04 06:22:52;;;;;;;55.20;25.40;;;;;;;-128.00;-1.00;-1.00;103114;1257;1004924;-78
2023/12/04 06:25:19;;;;;;;66.50;30.20;;;;;;;-128.00;-1.00;-1.00;103113;1259;1004344;-78
2023/12/04 06:27:46;;;;;;;80.30;35.40;;;;;;;-128.00;-1.00;-1.00;103064;1253;1004727;-78
2023/12/04 06:30:13;;;;;;;84.40;37.70;;;;;;;-128.00;-1.00;-1.00;103067;1260;1004541;-78
2023/12/04 06:32:40;;;;;;;125.80;39.40;;;;;;;-128.00;-1.00;-1.00;102929;1259;1003466;-78
2023/12/04 06:35:11;;;;;;;100.50;39.50;;;;;;;-128.00;-1.00;-1.00;103026;1259;1060327;-78
2023/12/04 06:37:40;;;;;;;118.30;40.00;;;;;;;-128.00;-1.00;-1.00;105621;1254;1004810;-78
2023/12/04 06:40:08;;;;;;;123.30;41.70;;;;;;;-128.00;-1.00;-1.00;105340;1254;1046649;-80
2023/12/04 06:42:35;;;;;;;114.10;43.00;;;;;;;-128.00;-1.00;-1.00;104449;1260;1004337;-80
2023/12/04 06:45:02;;;;;;;102.60;40.90;;;;;;;-128.00;-1.00;-1.00;103630;1254;1003753;-80
2023/12/04 06:47:31;;;;;;;113.00;38.40;;;;;;;-128.00;-1.00;-1.00;103537;1254;1004101;-80
2023/12/04 06:49:57;;;;;;;100.80;39.00;;;;;;;-128.00;-1.00;-1.00;103521;1254;1047197;-80
2023/12/04 06:52:24;;;;;;;102.60;40.30;;;;;;;-128.00;-1.00;-1.00;103658;1258;1004679;-79
2023/12/04 06:54:51;;;;;;;89.90;35.70;;;;;;;-128.00;-1.00;-1.00;103140;1254;1005150;-78
2023/12/04 06:57:17;;;;;;;109.60;45.30;;;;;;;-128.00;-1.00;-1.00;103279;1255;1004813;-80
2023/12/04 06:59:44;;;;;;;99.50;42.10;;;;;;;-128.00;-1.00;-1.00;103134;1254;1004908;-79
2023/12/04 07:02:11;;;;;;;88.40;41.20;;;;;;;-128.00;-1.00;-1.00;103053;1254;1004690;-79
2023/12/04 07:04:37;;;;;;;89.40;38.60;;;;;;;-128.00;-1.00;-1.00;103164;1258;1004464;-78
2023/12/04 07:07:06;;;;;;;102.70;40.30;;;;;;;-128.00;-1.00;-1.00;104772;1254;1004531;-79
2023/12/04 07:09:34;;;;;;;105.00;41.10;;;;;;;-128.00;-1.00;-1.00;105660;1255;1056578;-79
2023/12/04 07:12:00;;;;;;;84.90;37.90;;;;;;;-128.00;-1.00;-1.00;105362;1252;1004408;-79
2023/12/04 07:14:27;;;;;;;77.70;34.90;;;;;;;-128.00;-1.00;-1.00;105546;1254;1004064;-78
2023/12/04 07:16:54;;;;;;;79.20;34.00;;;;;;;-128.00;-1.00;-1.00;105562;1254;1004401;-78
2023/12/04 07:19:21;;;;;;;78.10;35.90;;;;;;;-128.00;-1.00;-1.00;105544;1254;1004843;-79
2023/12/04 07:21:48;;;;;;;76.10;31.50;;;;;;;-128.00;-1.00;-1.00;105532;1256;1004533;-79
2023/12/04 07:24:14;;;;;;;69.00;33.30;;;;;;;-128.00;-1.00;-1.00;105560;1254;1004005;-79
2023/12/04 07:26:41;;;;;;;75.40;35.80;;;;;;;-128.00;-1.00;-1.00;105328;1253;1004424;-78
2023/12/04 07:29:08;;;;;;;73.60;34.90;;;;;;;-128.00;-1.00;-1.00;105566;1253;1004678;-79
2023/12/04 07:31:34;;;;;;;78.40;34.70;;;;;;;-128.00;-1.00;-1.00;105285;1254;1004708;-78
2023/12/04 07:34:01;;;;;;;90.50;39.40;;;;;;;-128.00;-1.00;-1.00;105483;1254;1004795;-79
2023/12/04 07:36:28;;;;;;;98.80;42.40;;;;;;;-128.00;-1.00;-1.00;105540;1254;1003510;-80
2023/12/04 07:38:55;;;;;;;104.80;41.90;;;;;;;-128.00;-1.00;-1.00;105411;1254;1005069;-79
2023/12/04 07:41:21;;;;;;;122.30;58.60;;;;;;;-128.00;-1.00;-1.00;105478;1254;1003572;-79
2023/12/04 07:43:48;;;;;;;114.80;48.40;;;;;;;-128.00;-1.00;-1.00;105538;1253;1004217;-79
2023/12/04 07:46:15;;;;;;;108.70;53.70;;;;;;;-128.00;-1.00;-1.00;105540;1254;1003759;-79
2023/12/04 07:48:43;;;;;;;147.20;64.20;;;;;;;-128.00;-1.00;-1.00;105257;1254;1004219;-79
2023/12/04 07:51:10;;;;;;;110.30;56.30;;;;;;;-128.00;-1.00;-1.00;105600;1255;1004125;-80
2023/12/04 07:53:37;;;;;;;171.00;80.00;;;;;;;-128.00;-1.00;-1.00;105566;1254;1004415;-79
2023/12/04 07:56:04;;;;;;;239.00;108.20;;;;;;;-128.00;-1.00;-1.00;105505;1254;1003393;-79
2023/12/04 07:58:31;;;;;;;224.90;99.00;;;;;;;-128.00;-1.00;-1.00;105554;1254;1003840;-79
2023/12/04 08:00:58;;;;;;;156.40;76.40;;;;;;;-128.00;-1.00;-1.00;105420;1254;1004877;-79
2023/12/04 08:03:25;;;;;;;157.70;77.00;;;;;;;-128.00;-1.00;-1.00;105470;1253;1003475;-79
2023/12/04 08:05:51;;;;;;;115.80;57.60;;;;;;;-128.00;-1.00;-1.00;105433;1253;1004447;-79
2023/12/04 08:08:18;;;;;;;156.50;69.40;;;;;;;-128.00;-1.00;-1.00;105484;1254;1004499;-79
2023/12/04 08:10:44;;;;;;;123.50;48.80;;;;;;;-128.00;-1.00;-1.00;105506;1254;1003675;-78
2023/12/04 08:13:11;;;;;;;107.60;47.90;;;;;;;-128.00;-1.00;-1.00;105423;1254;1004679;-79
2023/12/04 08:15:38;;;;;;;111.90;54.60;;;;;;;-128.00;-1.00;-1.00;105510;1253;1004762;-79
2023/12/04 08:18:04;;;;;;;151.40;69.50;;;;;;;-128.00;-1.00;-1.00;105585;1254;1004085;-79
2023/12/04 08:20:31;;;;;;;138.50;60.60;;;;;;;-128.00;-1.00;-1.00;105498;1257;1004766;-79
2023/12/04 08:22:57;;;;;;;105.60;49.50;;;;;;;-128.00;-1.00;-1.00;105380;1254;1004628;-79
2023/12/04 08:25:24;;;;;;;122.70;60.80;;;;;;;-128.00;-1.00;-1.00;105527;1254;1005171;-78
2023/12/04 08:27:51;;;;;;;117.70;56.50;;;;;;;-128.00;-1.00;-1.00;105535;1254;1004382;-79
2023/12/04 08:30:17;;;;;;;120.80;54.30;;;;;;;-128.00;-1.00;-1.00;105500;1254;1004796;-79
2023/12/04 08:32:44;;;;;;;112.90;53.70;;;;;;;-128.00;-1.00;-1.00;105404;1254;1004003;-79
2023/12/04 08:35:11;;;;;;;103.30;45.80;;;;;;;-128.00;-1.00;-1.00;105560;1254;1003949;-78
2023/12/04 08:37:37;;;;;;;90.80;44.30;;;;;;;-128.00;-1.00;-1.00;105489;1253;1004531;-79
2023/12/04 08:40:04;;;;;;;103.80;45.10;;;;;;;-128.00;-1.00;-1.00;105530;1254;1004631;-79
2023/12/04 08:42:31;;;;;;;103.90;46.50;;;;;;;-128.00;-1.00;-1.00;105550;1253;1003925;-79
2023/12/04 08:44:58;;;;;;;112.40;53.10;;;;;;;-128.00;-1.00;-1.00;105537;1254;1006125;-79
2023/12/04 08:47:24;;;;;;;483.40;190.60;;;;;;;-128.00;-1.00;-1.00;105545;1253;1004201;-79
2023/12/04 08:49:51;;;;;;;226.60;105.50;;;;;;;-128.00;-1.00;-1.00;105477;1254;1003379;-79
2023/12/04 08:52:18;;;;;;;139.00;66.70;;;;;;;-128.00;-1.00;-1.00;105329;1254;1004594;-79
2023/12/04 08:54:45;;;;;;;115.70;57.80;;;;;;;-128.00;-1.00;-1.00;105449;1254;1003450;-79
2023/12/04 08:57:11;;;;;;;96.50;52.10;;;;;;;-128.00;-1.00;-1.00;105466;1254;1004429;-79
2023/12/04 08:59:38;;;;;;;289.30;119.00;;;;;;;-128.00;-1.00;-1.00;105505;1254;1004975;-79
2023/12/04 09:02:04;;;;;;;245.00;98.80;;;;;;;-128.00;-1.00;-1.00;105507;1254;1003656;-79
2023/12/04 09:04:31;;;;;;;467.10;195.20;;;;;;;-128.00;-1.00;-1.00;105154;1255;1004277;-78
2023/12/04 09:06:58;;;;;;;148.70;64.40;;;;;;;-128.00;-1.00;-1.00;103484;1253;1004260;-79
2023/12/04 09:09:25;;;;;;;445.60;177.20;;;;;;;-128.00;-1.00;-1.00;103232;1253;1004820;-79
2023/12/04 09:11:52;;;;;;;482.70;209.30;;;;;;;-128.00;-1.00;-1.00;103253;1252;1004518;-79
2023/12/04 09:14:18;;;;;;;345.80;143.60;;;;;;;-128.00;-1.00;-1.00;103187;1253;1004276;-79
2023/12/04 09:16:45;;;;;;;116.70;57.70;;;;;;;-128.00;-1.00;-1.00;103497;1254;1004786;-79
2023/12/04 09:19:11;;;;;;;122.90;55.90;;;;;;;-128.00;-1.00;-1.00;103579;1253;1004428;-79
2023/12/04 09:21:39;;;;;;;110.80;57.10;;;;;;;-128.00;-1.00;-1.00;103423;1255;1003858;-78
2023/12/04 09:24:05;;;;;;;93.20;50.60;;;;;;;-128.00;-1.00;-1.00;103409;1254;1003764;-79
2023/12/04 09:26:32;;;;;;;85.50;43.30;;;;;;;-128.00;-1.00;-1.00;103321;1254;1004154;-79
2023/12/04 09:28:58;;;;;;;75.30;36.00;;;;;;;-128.00;-1.00;-1.00;105472;1254;1003991;-79
2023/12/04 09:31:25;;;;;;;76.80;41.00;;;;;;;-128.00;-1.00;-1.00;105561;1253;1004257;-79
2023/12/04 09:33:52;;;;;;;77.70;37.90;;;;;;;-128.00;-1.00;-1.00;105553;1254;1003980;-79
2023/12/04 09:36:18;;;;;;;71.30;36.00;;;;;;;-128.00;-1.00;-1.00;105538;1253;1004219;-80
2023/12/04 09:38:45;;;;;;;65.60;34.00;;;;;;;-128.00;-1.00;-1.00;105487;1253;1003970;-80
2023/12/04 09:41:12;;;;;;;75.60;37.90;;;;;;;-128.00;-1.00;-1.00;105459;1253;1003900;-79
2023/12/04 09:43:38;;;;;;;78.40;37.20;;;;;;;-128.00;-1.00;-1.00;105553;1253;1003689;-79
2023/12/04 09:46:07;;;;;;;77.00;38.30;;;;;;;-128.00;-1.00;-1.00;105480;1253;1003555;-79
2023/12/04 09:48:33;;;;;;;76.80;40.30;;;;;;;-128.00;-1.00;-1.00;105480;1253;1004858;-79
2023/12/04 09:51:00;;;;;;;100.20;47.30;;;;;;;-128.00;-1.00;-1.00;105392;1256;1004711;-79
2023/12/04 09:53:27;;;;;;;86.30;42.90;;;;;;;-128.00;-1.00;-1.00;105361;1254;1004223;-79
2023/12/04 09:55:53;;;;;;;84.70;41.40;;;;;;;-128.00;-1.00;-1.00;105021;1254;1004836;-78
2023/12/04 09:58:20;;;;;;;69.60;34.50;;;;;;;-128.00;-1.00;-1.00;103383;1255;1005276;-79
2023/12/04 10:00:48;;;;;;;62.80;31.70;;;;;;;-128.00;-1.00;-1.00;103383;1254;1003931;-79
2023/12/04 10:03:14;;;;;;;59.60;29.70;;;;;;;-128.00;-1.00;-1.00;103758;1254;1005076;-79
2023/12/04 10:05:45;;;;;;;65.80;32.80;;;;;;;-128.00;-1.00;-1.00;103840;1254;1004004;-79
2023/12/04 10:08:12;;;;;;;60.40;29.20;;;;;;;-128.00;-1.00;-1.00;103385;1253;1046742;-79
2023/12/04 10:10:39;;;;;;;58.40;29.90;;;;;;;-128.00;-1.00;-1.00;103483;1254;1004488;-79
2023/12/04 10:13:06;;;;;;;64.80;31.90;;;;;;;-128.00;-1.00;-1.00;103523;1254;1004155;-79
2023/12/04 10:15:33;;;;;;;87.10;42.30;;;;;;;-128.00;-1.00;-1.00;103541;1253;1004440;-78
2023/12/04 10:17:59;;;;;;;102.60;45.90;;;;;;;-128.00;-1.00;-1.00;103427;1254;1004928;-78
2023/12/04 10:20:26;;;;;;;87.40;41.60;;;;;;;-128.00;-1.00;-1.00;103572;1253;1005018;-78
2023/12/04 10:22:57;;;;;;;76.10;39.20;;;;;;;-128.00;-1.00;-1.00;103439;1253;1004702;-78
2023/12/04 10:25:25;;;;;;;69.60;34.70;;;;;;;-128.00;-1.00;-1.00;103388;1254;1059256;-78
2023/12/04 10:27:52;;;;;;;81.40;39.20;;;;;;;-128.00;-1.00;-1.00;103717;1254;1004872;-78
2023/12/04 10:30:23;;;;;;;75.10;40.90;;;;;;;-128.00;-1.00;-1.00;105557;1253;1005437;-78
2023/12/04 10:32:49;;;;;;;87.60;45.50;;;;;;;-128.00;-1.00;-1.00;105393;1253;1047320;-78
2023/12/04 10:35:16;;;;;;;76.40;40.00;;;;;;;-128.00;-1.00;-1.00;105417;1254;1004171;-78
2023/12/04 10:37:43;;;;;;;88.50;44.90;;;;;;;-128.00;-1.00;-1.00;105566;1253;1004097;-79
2023/12/04 10:40:10;;;;;;;89.10;43.90;;;;;;;-128.00;-1.00;-1.00;105576;1253;1004066;-78
2023/12/04 10:42:36;;;;;;;84.70;42.00;;;;;;;-128.00;-1.00;-1.00;105552;1252;1004682;-78
2023/12/04 10:45:06;;;;;;;76.70;38.10;;;;;;;-128.00;-1.00;-1.00;105582;1253;1003870;-78
2023/12/04 10:47:32;;;;;;;73.50;35.70;;;;;;;-128.00;-1.00;-1.00;105577;1253;1062764;-79
2023/12/04 10:49:59;;;;;;;83.70;39.00;;;;;;;-128.00;-1.00;-1.00;105280;1256;1003501;-78
2023/12/04 10:52:26;;;;;;;80.00;37.20;;;;;;;-128.00;-1.00;-1.00;105555;1254;1005823;-78
2023/12/04 10:54:52;;;;;;;81.90;39.80;;;;;;;-128.00;-1.00;-1.00;105495;1254;1004335;-78
2023/12/04 10:57:25;;;;;;;100.30;45.90;;;;;;;-128.00;-1.00;-1.00;105582;1253;1004367;-78